createdAt,value
2018-04-18T00:00:56.584Z,7.07
2018-04-18T00:05:59.058Z,6.27
2018-04-18T00:11:01.520Z,8.17
2018-04-18T00:16:04.065Z,6.93
2018-04-18T00:21:06.622Z,6.33
2018-04-18T00:26:09.243Z,7.30
2018-04-18T00:31:11.822Z,8.30
2018-04-18T00:36:18.593Z,7.73
2018-04-18T00:41:21.333Z,8.80
2018-04-18T00:46:25.997Z,8.90
2018-04-18T00:51:28.572Z,8.60
2018-04-18T00:56:32.467Z,8.23
2018-04-18T01:01:35.282Z,7.47
2018-04-18T01:06:37.869Z,8.37
2018-04-18T01:11:40.393Z,9.47
2018-04-18T01:16:42.928Z,8.43
2018-04-18T01:21:45.411Z,9.43
2018-04-18T01:26:47.894Z,8.10
2018-04-18T01:31:50.384Z,7.60
2018-04-18T01:36:52.846Z,10.67
2018-04-18T01:41:55.299Z,8.77
2018-04-18T01:46:57.777Z,8.10
2018-04-18T01:52:00.218Z,8.33
2018-04-18T01:57:02.729Z,9.47
2018-04-18T02:02:05.992Z,9.23
2018-04-18T02:07:08.545Z,11.50
2018-04-18T02:12:11.078Z,11.13
2018-04-18T02:17:13.613Z,9.47
2018-04-18T02:22:16.138Z,9.17
2018-04-18T02:27:18.654Z,11.17
2018-04-18T02:32:21.113Z,9.53
2018-04-18T02:37:23.653Z,10.47
2018-04-18T02:42:26.131Z,11.90
2018-04-18T02:47:29.281Z,10.57
2018-04-18T02:52:32.095Z,10.60
2018-04-18T02:57:34.605Z,10.20
2018-04-18T03:02:37.287Z,10.73
2018-04-18T03:07:39.799Z,9.03
2018-04-18T03:12:42.316Z,13.17
2018-04-18T03:17:44.837Z,11.03
2018-04-18T03:22:47.324Z,11.13
2018-04-18T03:27:49.786Z,11.23
2018-04-18T03:32:52.276Z,13.70
2018-04-18T03:37:54.733Z,14.90
2018-04-18T03:42:57.198Z,11.30
2018-04-18T03:47:59.680Z,10.53
2018-04-18T03:53:02.179Z,13.00
2018-04-18T03:58:05.073Z,12.50
2018-04-18T04:03:07.592Z,11.63
2018-04-18T04:08:10.146Z,11.07
2018-04-18T04:13:14.361Z,13.20
2018-04-18T04:18:28.724Z,13.20
2018-04-18T04:23:43.229Z,11.77
2018-04-18T04:28:47.857Z,10.97
2018-04-18T04:33:50.459Z,11.03
2018-04-18T04:38:52.911Z,10.43
2018-04-18T04:43:55.427Z,10.43
2018-04-18T04:48:58.033Z,13.33
2018-04-18T04:54:00.545Z,11.43
2018-04-18T04:59:03.226Z,11.17
2018-04-18T05:04:06.253Z,11.50
2018-04-18T05:09:09.361Z,9.57
2018-04-18T05:14:13.734Z,9.40
2018-04-18T05:19:16.248Z,7.87
2018-04-18T05:24:18.799Z,7.10
2018-04-18T05:29:21.257Z,7.53
2018-04-18T05:34:23.806Z,7.70
2018-04-18T05:39:26.285Z,9.53
2018-04-18T05:44:29.598Z,10.80
2018-04-18T05:49:32.098Z,13.07
2018-04-18T05:54:34.635Z,13.97
2018-04-18T05:59:41.181Z,16.30
2018-04-18T06:04:43.870Z,18.00
2018-04-18T06:09:47.739Z,18.40
2018-04-18T06:14:50.879Z,20.40
2018-04-18T06:19:54.112Z,18.13
2018-04-18T06:24:57.265Z,19.90
2018-04-18T06:29:59.794Z,19.47
2018-04-18T06:35:02.335Z,20.60
2018-04-18T06:40:05.647Z,24.40
2018-04-18T06:45:08.753Z,23.73
2018-04-18T06:50:11.251Z,24.23
2018-04-18T06:55:15.260Z,24.10
2018-04-18T07:00:17.728Z,25.43
2018-04-18T07:05:20.215Z,22.47
2018-04-18T07:10:22.685Z,22.97
2018-04-18T07:15:25.175Z,24.67
2018-04-18T07:20:27.681Z,21.37
2018-04-18T07:25:30.180Z,23.10
2018-04-18T07:30:32.663Z,21.60
2018-04-18T07:35:35.171Z,21.07
2018-04-18T07:40:37.675Z,21.60
2018-04-18T07:45:40.300Z,19.30
2018-04-18T07:50:59.811Z,18.67
2018-04-18T07:56:05.437Z,16.97
2018-04-18T08:01:08.043Z,17.80
2018-04-18T08:06:23.320Z,19.57
2018-04-18T08:11:25.799Z,18.40
2018-04-18T08:16:28.294Z,18.17
2018-04-18T08:21:30.774Z,18.07
2018-04-18T08:26:33.289Z,17.40
2018-04-18T08:31:35.999Z,15.83
2018-04-18T08:36:38.881Z,15.37
2018-04-18T08:41:41.375Z,15.37
2018-04-18T08:46:43.851Z,14.60
2018-04-18T08:51:46.335Z,14.43
2018-04-18T08:56:48.838Z,15.63
2018-04-18T09:01:51.326Z,14.30
2018-04-18T09:06:53.851Z,14.47
2018-04-18T09:11:56.319Z,15.00
2018-04-18T09:16:58.807Z,12.00
2018-04-18T09:22:01.308Z,12.80
2018-04-18T09:27:04.058Z,13.00
2018-04-18T09:32:06.640Z,13.13
2018-04-18T09:37:09.164Z,13.05
2018-04-18T09:42:11.679Z,12.20
2018-04-18T09:47:14.155Z,13.35
2018-04-18T09:52:16.638Z,12.80
2018-04-18T09:57:19.099Z,13.20
2018-04-18T10:02:27.243Z,14.15
2018-04-18T10:07:29.762Z,12.20
2018-04-18T10:12:32.231Z,12.02
2018-04-18T10:17:34.750Z,11.30
2018-04-18T10:22:37.483Z,11.93
2018-04-18T10:27:40.198Z,10.83
2018-04-18T10:32:42.839Z,11.40
2018-04-18T10:37:45.331Z,10.55
2018-04-18T10:42:47.802Z,7.75
2018-04-18T10:47:50.277Z,10.45
2018-04-18T10:52:52.811Z,7.62
2018-04-18T10:57:55.353Z,9.77
2018-04-18T11:02:57.856Z,9.20
2018-04-18T11:08:00.343Z,9.53
2018-04-18T11:13:02.839Z,10.93
2018-04-18T11:18:05.412Z,10.30
2018-04-18T11:23:10.147Z,9.83
2018-04-18T11:28:12.781Z,11.43
2018-04-18T12:06:09.356Z,9.83
2018-04-18T12:11:11.847Z,9.57
2018-04-18T12:16:14.357Z,9.30
2018-04-18T12:21:16.849Z,9.57
2018-04-18T12:26:19.338Z,7.83
2018-04-18T12:31:21.791Z,7.60
2018-04-18T12:36:24.251Z,7.30
2018-04-18T12:41:26.764Z,7.37
2018-04-18T12:46:29.244Z,7.20
2018-04-18T12:51:31.710Z,8.03
2018-04-18T12:56:35.447Z,7.07
2018-04-18T13:01:38.025Z,6.00
2018-04-18T13:06:40.588Z,6.67
2018-04-18T13:11:43.144Z,6.17
2018-04-18T13:16:45.621Z,7.03
2018-04-18T13:21:48.152Z,7.17
2018-04-18T13:26:50.788Z,6.53
2018-04-18T13:31:53.285Z,6.60
2018-04-18T13:36:55.731Z,5.60
2018-04-18T13:41:58.226Z,5.37
2018-04-18T13:47:00.868Z,6.50
2018-04-18T13:52:03.369Z,5.57
2018-04-18T13:57:05.960Z,5.60
2018-04-18T14:02:14.282Z,6.20
2018-04-18T14:07:16.719Z,5.90
2018-04-18T14:12:19.553Z,7.00
2018-04-18T14:17:22.055Z,6.17
2018-04-18T14:22:24.529Z,5.83
2018-04-18T14:27:27.040Z,7.57
2018-04-18T14:32:29.616Z,5.40
2018-04-18T14:37:32.087Z,6.57
2018-04-18T14:42:34.645Z,5.67
2018-04-18T14:47:37.236Z,5.33
2018-04-18T14:52:40.017Z,4.90
2018-04-18T14:57:42.534Z,5.00
2018-04-18T15:02:45.048Z,5.20
2018-04-18T15:07:47.529Z,6.10
2018-04-18T15:12:49.991Z,6.13
2018-04-18T15:17:52.443Z,5.33
2018-04-18T15:22:54.933Z,6.10
2018-04-18T15:27:57.452Z,5.40
2018-04-18T15:32:59.937Z,5.70
2018-04-18T15:38:02.406Z,5.70
2018-04-18T15:43:05.142Z,4.80
2018-04-18T15:48:10.578Z,4.23
2018-04-18T15:53:23.133Z,4.97
2018-04-18T15:58:25.637Z,4.17
2018-04-18T16:03:28.138Z,4.43
2018-04-18T16:08:30.627Z,4.50
2018-04-18T16:13:33.125Z,4.07
2018-04-18T16:18:35.760Z,4.97
2018-04-18T16:23:38.455Z,4.60
2018-04-18T16:28:41.223Z,4.23
2018-04-18T16:33:44.340Z,4.33
2018-04-18T16:38:46.806Z,4.70
2018-04-18T16:43:49.289Z,5.07
2018-04-18T16:48:59.647Z,4.60
2018-04-18T16:54:02.141Z,4.67
2018-04-18T16:59:04.721Z,4.70
2018-04-18T17:04:07.481Z,4.27
2018-04-18T17:09:10.285Z,4.07
2018-04-18T17:14:12.949Z,4.47
2018-04-18T17:19:15.466Z,4.80
2018-04-18T17:24:17.966Z,4.03
2018-04-18T17:29:20.572Z,4.63
2018-04-18T17:34:23.340Z,4.50
2018-04-18T17:39:26.427Z,4.63
2018-04-18T17:44:28.915Z,4.60
2018-04-18T17:49:31.393Z,5.40
2018-04-18T17:54:33.944Z,4.37
2018-04-18T17:59:40.612Z,5.33
2018-04-18T18:04:43.582Z,6.57
2018-04-18T18:09:46.961Z,5.77
2018-04-18T18:14:49.788Z,5.10
2018-04-18T18:19:52.252Z,4.63
2018-04-18T18:24:54.727Z,5.00
2018-04-18T18:29:57.183Z,4.50
2018-04-18T18:35:02.207Z,5.13
2018-04-18T18:40:05.302Z,4.77
2018-04-18T18:45:08.083Z,4.40
2018-04-18T18:50:10.686Z,6.03
2018-04-18T18:55:13.248Z,5.63
2018-04-18T19:00:15.724Z,4.97
2018-04-18T19:05:18.184Z,4.83
2018-04-18T19:10:20.664Z,5.47
2018-04-18T19:15:23.144Z,6.10
2018-04-18T19:20:25.647Z,5.60
2018-04-18T19:25:28.119Z,6.37
2018-04-18T19:30:30.586Z,5.90
2018-04-18T19:35:33.070Z,5.70
2018-04-18T19:40:35.676Z,6.23
2018-04-18T19:45:38.195Z,6.03
2018-04-18T19:50:40.734Z,6.13
2018-04-18T19:55:43.417Z,5.33
2018-04-18T20:00:45.902Z,5.80
2018-04-18T20:06:01.003Z,5.97
2018-04-18T20:11:05.866Z,5.93
2018-04-18T20:16:08.418Z,6.33
2018-04-18T20:21:10.942Z,5.73
2018-04-18T20:26:13.461Z,5.30
2018-04-18T20:31:15.958Z,6.00
2018-04-18T20:36:18.484Z,5.53
2018-04-18T20:41:21.445Z,6.37
2018-04-18T20:46:24.717Z,7.63
2018-04-18T20:51:27.168Z,8.03
2018-04-18T20:56:29.641Z,7.17
2018-04-18T21:01:32.126Z,8.30
2018-04-18T21:06:35.680Z,8.03
2018-04-18T21:11:38.649Z,8.00
2018-04-18T21:16:41.173Z,8.53
2018-04-18T21:21:43.668Z,7.10
2018-04-18T21:26:46.305Z,10.77
2018-04-18T21:31:48.794Z,9.73
2018-04-18T21:36:51.298Z,9.80
2018-04-18T21:41:53.906Z,12.40
2018-04-18T21:46:56.435Z,11.43
2018-04-18T21:51:58.903Z,11.07
2018-04-18T21:57:01.451Z,11.07
2018-04-18T22:07:47.072Z,11.37
2018-04-18T22:13:06.529Z,12.67
2018-04-18T22:18:09.040Z,11.07
2018-04-18T22:23:11.592Z,12.63
2018-04-18T22:28:14.162Z,13.70
2018-04-18T22:33:16.624Z,15.03
2018-04-18T22:38:19.096Z,13.70
2018-04-18T22:43:23.026Z,14.93
2018-04-18T22:48:25.520Z,14.47
2018-04-18T22:53:27.990Z,15.63
2018-04-18T22:58:30.464Z,17.10
2018-04-18T23:03:32.939Z,15.77
2018-04-18T23:08:35.606Z,14.60
2018-04-18T23:13:38.098Z,17.93
2018-04-18T23:18:40.669Z,14.57
2018-04-18T23:23:43.156Z,15.60
2018-04-18T23:28:45.688Z,14.57
2018-04-18T23:33:48.177Z,17.57
2018-04-18T23:38:50.644Z,16.13
2018-04-18T23:43:53.101Z,15.20
2018-04-18T23:48:55.642Z,14.63
2018-04-18T23:53:58.143Z,17.30
2018-04-18T23:59:00.605Z,15.67
